Time;durP1;ratioP1;P1;durP2;ratioP2;P2;SDS_P1;SDS_P2;PMS_P1;PMS_P2;Temp;Humidity;BMP_temperature;BMP_pressure;BME280_temperature;BME280_humidity;BME280_pressure;Samples;Min_cycle;Max_cycle;Signal;HPM_P1;HPM_P2
2022/06/16 00:02:11;;;;;;;15.20;14.70;;;25.00;54.80;;;;;;5092187;28;20787;-62
2022/06/16 00:04:38;;;;;;;15.73;14.93;;;25.00;54.80;;;;;;5079987;28;20501;-62
2022/06/16 00:07:06;;;;;;;15.10;14.40;;;24.90;54.70;;;;;;5072017;28;20538;-62
2022/06/16 00:09:32;;;;;;;14.33;13.77;;;25.00;54.80;;;;;;5071808;28;20451;-62
2022/06/16 00:11:59;;;;;;;15.00;14.50;;;25.00;55.00;;;;;;5071738;28;20462;-61
2022/06/16 00:14:29;;;;;;;15.03;14.53;;;24.90;54.90;;;;;;5081540;28;20446;-61
2022/06/16 00:16:58;;;;;;;14.27;13.77;;;24.90;54.90;;;;;;5092034;28;20457;-57
2022/06/16 00:19:25;;;;;;;15.70;15.10;;;24.90;54.90;;;;;;5091620;28;20450;-63
2022/06/16 00:21:52;;;;;;;14.50;14.00;;;24.90;54.90;;;;;;5091633;28;20528;-60
2022/06/16 00:24:19;;;;;;;14.80;14.30;;;24.90;54.90;;;;;;5090250;28;20443;-61
2022/06/16 00:26:46;;;;;;;14.40;13.80;;;24.90;54.90;;;;;;5092001;28;20473;-57
2022/06/16 00:29:13;;;;;;;14.57;13.97;;;24.90;54.90;;;;;;5091820;28;21012;-63
2022/06/16 00:31:40;;;;;;;15.13;14.57;;;24.90;54.90;;;;;;5091481;28;20466;-61
2022/06/16 00:34:08;;;;;;;14.30;13.73;;;24.90;54.90;;;;;;5082858;28;20447;-61
2022/06/16 00:36:37;;;;;;;15.30;14.50;;;24.90;54.90;;;;;;5071478;28;20479;-62
2022/06/16 00:39:05;;;;;;;15.80;15.10;;;24.80;55.00;;;;;;5071635;28;20479;-60
2022/06/16 00:41:32;;;;;;;14.10;13.60;;;24.80;55.00;;;;;;5071755;28;20526;-60
2022/06/16 00:44:00;;;;;;;14.00;13.50;;;24.80;54.90;;;;;;5091744;28;20446;-62
2022/06/16 00:46:29;;;;;;;14.83;14.23;;;24.80;54.90;;;;;;5091613;28;20506;-63
2022/06/16 00:48:59;;;;;;;15.93;15.03;;;24.80;54.90;;;;;;5091597;28;20446;-63
2022/06/16 00:51:33;;;;;;;14.00;13.60;;;24.80;54.90;;;;;;5091035;28;20541;-63
2022/06/16 00:54:08;;;;;;;14.53;14.13;;;24.80;54.80;;;;;;5051430;28;20480;-63
2022/06/16 00:56:36;;;;;;;14.23;13.73;;;24.70;54.60;;;;;;5051266;28;20491;-61
2022/06/16 00:59:07;;;;;;;15.60;14.90;;;24.80;54.70;;;;;;5051265;28;20503;-63
2022/06/16 01:01:35;;;;;;;15.50;15.00;;;24.70;54.60;;;;;;5052369;28;20472;-63
2022/06/16 01:06:48;;;;;;;14.73;14.13;;;24.70;55.00;;;;;;5091609;28;20464;-63
2022/06/16 01:09:19;;;;;;;14.83;14.20;;;24.70;54.50;;;;;;5091484;28;20442;-60
2022/06/16 01:15:07;;;;;;;14.07;13.57;;;24.70;54.40;;;;;;5071308;28;20423;-61
2022/06/16 01:17:41;;;;;;;14.07;13.57;;;24.70;54.40;;;;;;5052903;28;20512;-61
2022/06/16 01:20:16;;;;;;;13.87;13.37;;;24.70;54.50;;;;;;5072838;28;20458;-62
2022/06/16 01:23:31;;;;;;;15.70;15.20;;;24.60;54.50;;;;;;5091297;28;20519;-61
2022/06/16 01:26:15;;;;;;;14.07;13.57;;;24.60;54.50;;;;;;5091309;28;20434;-63
2022/06/16 01:29:08;;;;;;;15.23;14.47;;;24.60;54.50;;;;;;5091372;28;20937;-63
2022/06/16 01:31:41;;;;;;;14.23;13.73;;;24.60;54.40;;;;;;5078818;28;20462;-62
2022/06/16 01:34:13;;;;;;;15.47;14.87;;;24.60;54.40;;;;;;5074799;28;20526;-63
2022/06/16 01:36:48;;;;;;;14.67;14.17;;;24.60;54.20;;;;;;5074701;28;20536;-62
2022/06/16 01:39:20;;;;;;;14.20;13.77;;;24.60;54.20;;;;;;5074761;28;20530;-63
2022/06/16 01:41:54;;;;;;;16.30;15.80;;;24.60;54.10;;;;;;5089597;28;20523;-63
2022/06/16 01:44:26;;;;;;;14.90;14.40;;;24.60;54.10;;;;;;5095018;28;20861;-62
2022/06/16 01:46:58;;;;;;;13.90;13.30;;;24.50;53.80;;;;;;5095008;28;20947;-63
2022/06/16 01:49:30;;;;;;;15.17;14.57;;;24.50;53.80;;;;;;5085205;28;20447;-63
2022/06/16 01:52:01;;;;;;;14.77;13.97;;;24.50;53.80;;;;;;5074476;28;20532;-61
2022/06/16 01:54:33;;;;;;;14.57;14.07;;;24.50;53.70;;;;;;5074524;28;20447;-60
2022/06/16 01:57:04;;;;;;;14.07;13.67;;;24.50;53.70;;;;;;5074428;28;20479;-62
2022/06/16 01:59:37;;;;;;;14.80;14.20;;;24.50;53.80;;;;;;5083754;28;20446;-60
2022/06/16 02:02:08;;;;;;;14.20;13.70;;;24.50;53.80;;;;;;5094460;28;20466;-61
2022/06/16 02:04:39;;;;;;;14.33;13.83;;;24.50;53.90;;;;;;5094614;28;20854;-60
2022/06/16 02:07:10;;;;;;;14.37;13.77;;;24.50;53.70;;;;;;5094518;28;20446;-61
2022/06/16 02:09:42;;;;;;;14.27;13.77;;;24.50;53.70;;;;;;5083821;28;20492;-59
2022/06/16 02:12:55;;;;;;;14.63;14.13;;;24.50;53.50;;;;;;5074186;28;20800;-61
2022/06/16 02:15:10;;;;;;;13.97;13.50;;;24.50;53.60;;;;;;5073953;28;20443;-60
2022/06/16 02:17:37;;;;;;;14.77;14.17;;;24.50;53.40;;;;;;5073978;28;20440;-59
2022/06/16 02:20:04;;;;;;;14.47;13.93;;;24.40;53.30;;;;;;5087425;28;20515;-59
2022/06/16 02:22:32;;;;;;;14.47;14.07;;;24.40;53.10;;;;;;5094290;28;20463;-59
2022/06/16 02:24:59;;;;;;;15.13;14.53;;;24.40;53.20;;;;;;5094098;28;20885;-61
2022/06/16 02:27:26;;;;;;;14.07;13.57;;;24.40;53.20;;;;;;5094161;28;20446;-59
2022/06/16 02:29:53;;;;;;;14.23;13.73;;;24.40;53.20;;;;;;5081658;28;20485;-59
2022/06/16 02:32:31;;;;;;;15.03;14.53;;;24.40;53.20;;;;;;5073584;28;20588;-58
2022/06/16 02:35:08;;;;;;;13.60;13.20;;;24.30;53.10;;;;;;5073939;28;20446;-60
2022/06/16 02:37:56;;;;;;;14.00;13.40;;;24.30;53.00;;;;;;5073861;28;20876;-59
2022/06/16 02:40:43;;;;;;;14.77;13.83;;;24.30;53.10;;;;;;5073746;28;20447;-59
2022/06/16 02:43:27;;;;;;;13.87;13.37;;;24.30;53.20;;;;;;5073650;28;20435;-60
2022/06/16 02:46:01;;;;;;;14.90;14.50;;;24.30;53.10;;;;;;5073520;28;20438;-61
2022/06/16 02:48:36;;;;;;;13.80;13.40;;;24.30;53.00;;;;;;5073685;28;20446;-61
2022/06/16 02:51:09;;;;;;;13.77;13.30;;;24.30;52.90;;;;;;5080845;28;20867;-60
2022/06/16 02:53:42;;;;;;;13.83;13.33;;;24.30;52.90;;;;;;5093534;28;20442;-59
2022/06/16 02:56:15;;;;;;;14.20;13.60;;;24.30;52.90;;;;;;5093623;28;20856;-60
2022/06/16 02:58:44;;;;;;;14.63;14.13;;;24.30;53.40;;;;;;5091709;28;20477;-60
2022/06/16 03:01:12;;;;;;;14.03;13.63;;;24.30;52.90;;;;;;5072929;28;20546;-61
2022/06/16 03:03:41;;;;;;;15.53;14.83;;;24.30;52.80;;;;;;5073275;28;20877;-61
2022/06/16 03:06:11;;;;;;;14.40;13.80;;;24.30;52.70;;;;;;5073163;28;20439;-57
2022/06/16 03:08:41;;;;;;;13.87;13.47;;;24.30;52.60;;;;;;5073936;28;20566;-62
2022/06/16 03:11:08;;;;;;;14.23;13.63;;;24.20;52.50;;;;;;5090153;28;20470;-61
2022/06/16 03:13:35;;;;;;;14.70;14.20;;;24.20;52.60;;;;;;5087308;28;20508;-61
2022/06/16 03:16:04;;;;;;;14.87;14.37;;;24.20;52.60;;;;;;5072823;28;20483;-60
2022/06/16 03:18:31;;;;;;;14.27;13.67;;;24.20;52.40;;;;;;5072941;28;20452;-58
2022/06/16 03:20:59;;;;;;;15.00;14.50;;;24.20;52.30;;;;;;5088530;22;20486;-68
2022/06/16 03:23:26;;;;;;;14.77;14.17;;;24.20;52.30;;;;;;5084202;28;20847;-68
2022/06/16 03:25:53;;;;;;;14.53;14.03;;;24.10;52.20;;;;;;5093010;28;20823;-67
2022/06/16 03:28:20;;;;;;;14.43;13.93;;;24.10;52.30;;;;;;5092938;28;21000;-68
2022/06/16 03:30:47;;;;;;;14.17;13.70;;;24.20;52.50;;;;;;5073395;28;20946;-68
2022/06/16 03:33:14;;;;;;;15.37;14.57;;;24.20;52.40;;;;;;5072668;28;20475;-68
2022/06/16 03:35:43;;;;;;;15.40;14.90;;;24.10;52.50;;;;;;5072519;28;20450;-67
2022/06/16 03:38:14;;;;;;;14.77;14.30;;;24.10;52.50;;;;;;5072538;28;20535;-67
2022/06/16 03:40:41;;;;;;;14.63;14.07;;;24.10;52.60;;;;;;5054920;28;20455;-67
2022/06/16 03:43:08;;;;;;;15.70;14.90;;;24.10;52.60;;;;;;5052450;28;20539;-68
2022/06/16 03:45:35;;;;;;;14.80;14.30;;;24.10;52.60;;;;;;5052284;28;20448;-68
2022/06/16 03:48:03;;;;;;;15.33;14.63;;;24.10;52.50;;;;;;5052402;28;20614;-68
2022/06/16 03:50:30;;;;;;;15.23;14.73;;;24.10;53.00;;;;;;5067077;28;21001;-70
2022/06/16 03:52:57;;;;;;;14.70;14.07;;;24.10;52.30;;;;;;5052273;28;20444;-68
2022/06/16 03:55:27;;;;;;;15.30;14.70;;;24.00;52.00;;;;;;5051970;28;20528;-71
2022/06/16 03:57:55;;;;;;;14.53;14.03;;;24.00;52.60;;;;;;5052098;28;20480;-68
2022/06/16 04:00:22;;;;;;;15.03;14.23;;;24.00;52.40;;;;;;5055580;28;20475;-68
2022/06/16 04:03:59;;;;;;;14.90;14.40;;;24.00;52.30;;;;;;5070113;28;20447;-68
2022/06/16 04:05:39;;;;;;;16.23;15.73;;;24.00;52.60;;;;;;5072094;28;20451;-67
2022/06/16 04:08:07;;;;;;;15.83;15.30;;;24.00;52.50;;;;;;5071931;28;20536;-67
2022/06/16 04:10:35;;;;;;;16.23;15.57;;;24.00;52.30;;;;;;5056125;28;20528;-66
2022/06/16 04:13:02;;;;;;;16.33;15.80;;;24.00;52.30;;;;;;5051977;28;20439;-65
2022/06/16 04:15:29;;;;;;;16.43;15.93;;;24.00;52.70;;;;;;5051879;28;20852;-65
2022/06/16 04:17:56;;;;;;;16.80;16.10;;;24.00;52.20;;;;;;5051654;28;20526;-66
2022/06/16 04:20:23;;;;;;;16.40;15.80;;;24.00;52.10;;;;;;5064965;28;20530;-69
2022/06/16 04:22:51;;;;;;;16.30;15.70;;;24.00;52.10;;;;;;5071667;28;20546;-69
2022/06/16 04:25:21;;;;;;;16.70;15.77;;;24.00;52.00;;;;;;5071866;28;20941;-69
2022/06/16 04:27:50;;;;;;;16.20;15.63;;;24.00;51.90;;;;;;5071773;28;20463;-69
2022/06/16 04:30:18;;;;;;;15.80;15.30;;;24.00;51.80;;;;;;5058803;28;20449;-69
2022/06/16 04:32:45;;;;;;;16.60;15.90;;;23.90;51.70;;;;;;5051594;28;20460;-69
2022/06/16 04:35:12;;;;;;;16.03;15.47;;;24.00;52.70;;;;;;5051729;28;20480;-69
2022/06/16 04:37:39;;;;;;;16.23;15.73;;;24.00;52.30;;;;;;5051394;28;20488;-69
2022/06/16 04:40:08;;;;;;;16.30;15.80;;;24.00;52.40;;;;;;5061766;28;20538;-70
2022/06/16 04:42:34;;;;;;;16.57;15.93;;;24.00;52.30;;;;;;5071376;28;20464;-68
2022/06/16 04:45:03;;;;;;;16.30;15.70;;;24.00;52.20;;;;;;5071461;28;20956;-69
2022/06/16 04:47:29;;;;;;;17.17;16.47;;;24.00;52.10;;;;;;5071677;28;20860;-69
2022/06/16 04:49:56;;;;;;;16.50;15.90;;;24.00;52.20;;;;;;5061929;28;20502;-69
2022/06/16 04:52:23;;;;;;;16.77;16.07;;;24.00;52.00;;;;;;5051378;28;20571;-71
2022/06/16 04:54:50;;;;;;;16.80;16.17;;;24.00;52.10;;;;;;5054398;28;20534;-71
2022/06/16 04:57:18;;;;;;;16.80;16.20;;;24.00;52.00;;;;;;5071210;28;21017;-71
2022/06/16 04:59:44;;;;;;;16.80;16.20;;;24.00;52.00;;;;;;5063854;28;20444;-71
2022/06/16 05:02:13;;;;;;;17.27;16.77;;;24.00;52.00;;;;;;5051250;28;20503;-71
2022/06/16 05:04:41;;;;;;;17.13;16.43;;;24.00;51.90;;;;;;5051214;28;21005;-71
2022/06/16 05:07:08;;;;;;;17.30;16.60;;;24.00;51.90;;;;;;5054345;28;20444;-70
2022/06/16 05:09:35;;;;;;;17.87;17.27;;;24.00;51.90;;;;;;5060499;28;21012;-71
2022/06/16 05:12:02;;;;;;;17.70;16.90;;;24.00;51.90;;;;;;5075155;28;20499;-69
2022/06/16 05:14:29;;;;;;;15.23;14.73;;;24.00;51.90;;;;;;5065415;28;20437;-68
2022/06/16 05:16:59;;;;;;;17.57;16.87;;;24.10;52.10;;;;;;5061609;28;20483;-66
2022/06/16 05:19:30;;;;;;;17.50;16.90;;;24.20;51.90;;;;;;5071316;28;20458;-67
2022/06/16 05:21:58;;;;;;;16.67;16.17;;;24.20;51.60;;;;;;5054867;28;20537;-68
2022/06/16 05:24:25;;;;;;;17.20;16.70;;;24.20;51.50;;;;;;5071050;28;20454;-69
2022/06/16 05:26:52;;;;;;;16.77;16.27;;;24.20;51.30;;;;;;5068259;28;20855;-68
2022/06/16 05:29:20;;;;;;;17.27;16.67;;;24.10;51.30;;;;;;5054923;28;20472;-66
2022/06/16 05:31:47;;;;;;;16.60;16.10;;;24.20;51.40;;;;;;5054742;28;20471;-66
2022/06/16 05:34:14;;;;;;;17.73;17.13;;;24.20;51.60;;;;;;5054837;28;20958;-68
2022/06/16 05:36:44;;;;;;;17.17;16.53;;;24.20;51.50;;;;;;5054831;28;21076;-68
2022/06/16 05:39:11;;;;;;;17.57;17.03;;;24.10;51.20;;;;;;5055196;28;20527;-69
2022/06/16 05:41:38;;;;;;;16.90;16.40;;;24.10;51.40;;;;;;5054592;28;20496;-69
2022/06/16 05:44:06;;;;;;;17.30;16.50;;;24.10;51.60;;;;;;5054646;28;20448;-70
2022/06/16 05:46:34;;;;;;;17.40;16.80;;;24.20;52.10;;;;;;5059298;28;20997;-68
2022/06/16 05:49:01;;;;;;;17.93;17.17;;;24.20;52.50;;;;;;5072870;28;20487;-70
2022/06/16 05:51:28;;;;;;;19.60;18.60;;;24.20;53.30;;;;;;5066051;28;20898;-70
2022/06/16 05:53:56;;;;;;;18.50;17.90;;;24.20;53.40;;;;;;5058649;28;20527;-66
2022/06/16 05:56:23;;;;;;;18.97;18.30;;;24.20;53.90;;;;;;5065160;28;20442;-68
2022/06/16 05:58:50;;;;;;;17.07;16.57;;;24.20;54.90;;;;;;5066901;28;20475;-69
2022/06/16 06:01:17;;;;;;;19.00;18.20;;;24.20;54.10;;;;;;5063705;28;20930;-67
2022/06/16 06:03:44;;;;;;;17.70;16.90;;;24.20;54.00;;;;;;5074214;28;20544;-70
2022/06/16 06:06:11;;;;;;;17.27;16.53;;;24.20;54.00;;;;;;5060081;28;20474;-72
2022/06/16 06:17:04;;;;;;;18.03;17.23;;;24.30;54.10;;;;;;5057090;28;20474;-70
2022/06/16 06:19:31;;;;;;;17.90;17.10;;;24.30;54.60;;;;;;5063501;28;20464;-68
2022/06/16 06:22:02;;;;;;;16.97;16.47;;;24.30;54.00;;;;;;5060047;28;20476;-70
2022/06/16 06:24:32;;;;;;;18.00;17.40;;;24.30;54.10;;;;;;5069876;28;20592;-72
2022/06/16 06:27:02;;;;;;;17.27;16.77;;;24.30;54.10;;;;;;5058102;28;20472;-69
2022/06/16 06:29:30;;;;;;;17.70;17.03;;;24.30;53.80;;;;;;5060020;28;20543;-69
2022/06/16 06:31:57;;;;;;;17.40;16.90;;;24.30;53.70;;;;;;5073619;28;20506;-68
2022/06/16 06:34:24;;;;;;;17.73;17.17;;;24.30;53.50;;;;;;5062510;28;20452;-70
2022/06/16 06:36:51;;;;;;;17.10;16.50;;;24.30;53.50;;;;;;5068209;28;20548;-70
2022/06/16 06:39:18;;;;;;;17.97;17.40;;;24.30;53.40;;;;;;5072056;28;20443;-67
2022/06/16 06:41:44;;;;;;;18.47;17.73;;;24.30;53.40;;;;;;5072205;28;20488;-71
2022/06/16 06:44:13;;;;;;;18.20;17.60;;;24.30;53.20;;;;;;5067448;28;20938;-71
2022/06/16 06:46:40;;;;;;;18.20;17.60;;;24.30;53.30;;;;;;5063147;28;21029;-69
2022/06/16 06:49:07;;;;;;;18.90;18.30;;;24.30;53.20;;;;;;5064282;28;20452;-70
2022/06/16 06:51:34;;;;;;;17.97;17.20;;;24.30;53.00;;;;;;5065826;28;20532;-70
2022/06/16 06:54:02;;;;;;;17.80;17.23;;;24.40;53.20;;;;;;5068513;28;20444;-69
2022/06/16 06:56:31;;;;;;;17.80;17.10;;;24.30;53.00;;;;;;5053260;28;20535;-68
2022/06/16 06:59:00;;;;;;;18.00;17.40;;;24.30;53.10;;;;;;5069282;28;20443;-66
2022/06/16 07:01:29;;;;;;;19.50;18.70;;;24.30;52.60;;;;;;5059840;28;20550;-67
2022/06/16 07:03:56;;;;;;;17.70;17.07;;;24.30;52.90;;;;;;5072895;28;20565;-68
2022/06/16 07:06:23;;;;;;;18.10;17.50;;;24.30;52.40;;;;;;5070809;28;20450;-67
2022/06/16 07:08:50;;;;;;;18.47;17.67;;;24.30;52.00;;;;;;5057285;28;20900;-67
2022/06/16 07:11:17;;;;;;;18.13;17.53;;;24.20;51.70;;;;;;5069439;28;20491;-67
2022/06/16 07:13:44;;;;;;;17.70;17.13;;;24.20;52.20;;;;;;5064103;28;20528;-66
2022/06/16 07:16:12;;;;;;;18.30;17.60;;;24.20;52.70;;;;;;5054074;28;20479;-70
2022/06/16 07:18:40;;;;;;;18.30;17.70;;;24.30;52.60;;;;;;5052953;28;20516;-68
2022/06/16 07:21:07;;;;;;;18.53;17.83;;;24.20;51.90;;;;;;5070313;28;20493;-69
2022/06/16 07:23:34;;;;;;;18.53;17.93;;;24.20;52.10;;;;;;5072943;28;20530;-68
2022/06/16 07:26:01;;;;;;;19.67;19.07;;;24.30;52.60;;;;;;5055741;28;20445;-68
2022/06/16 07:28:29;;;;;;;18.00;17.40;;;24.30;52.70;;;;;;5055189;28;20461;-69
2022/06/16 07:30:56;;;;;;;19.27;18.67;;;24.30;52.70;;;;;;5056444;28;20547;-67
2022/06/16 07:33:23;;;;;;;18.50;18.00;;;24.30;52.60;;;;;;5068816;28;20501;-67
2022/06/16 07:35:55;;;;;;;19.10;18.40;;;24.30;52.50;;;;;;5059095;28;20812;-66
2022/06/16 07:38:23;;;;;;;18.40;17.70;;;24.30;52.30;;;;;;5069086;28;20554;-64
2022/06/16 07:40:50;;;;;;;19.23;18.53;;;24.30;52.30;;;;;;5059026;28;20495;-68
2022/06/16 07:43:17;;;;;;;19.10;18.40;;;24.30;52.20;;;;;;5069852;28;20443;-68
2022/06/16 07:45:45;;;;;;;18.53;17.93;;;24.30;52.10;;;;;;5058038;28;20475;-67
2022/06/16 07:48:15;;;;;;;18.80;18.10;;;24.30;52.40;;;;;;5062660;28;20467;-66
2022/06/16 07:50:43;;;;;;;18.40;17.80;;;24.40;52.60;;;;;;5065607;28;20513;-67
2022/06/16 07:53:11;;;;;;;18.47;17.87;;;24.40;52.50;;;;;;5055173;28;20480;-68
2022/06/16 07:55:38;;;;;;;18.37;17.77;;;24.40;51.60;;;;;;5063993;28;20475;-67
2022/06/16 07:58:04;;;;;;;18.97;18.37;;;24.40;52.10;;;;;;5061110;28;20590;-67
2022/06/16 08:00:35;;;;;;;18.93;18.30;;;24.40;51.80;;;;;;5071242;28;20446;-68
2022/06/16 08:03:03;;;;;;;18.93;18.13;;;24.40;51.90;;;;;;5054717;28;20499;-68
2022/06/16 08:05:30;;;;;;;18.97;18.37;;;24.40;51.90;;;;;;5068320;28;20482;-68
2022/06/16 08:07:57;;;;;;;18.33;17.73;;;24.40;51.90;;;;;;5057522;28;20536;-68
2022/06/16 08:10:29;;;;;;;19.30;18.70;;;24.40;51.90;;;;;;5062800;28;20542;-68
2022/06/16 08:12:56;;;;;;;18.83;18.23;;;24.40;52.10;;;;;;5055266;28;20484;-69
2022/06/16 08:15:23;;;;;;;18.93;18.23;;;24.40;51.90;;;;;;5052956;28;20444;-68
2022/06/16 08:17:53;;;;;;;18.80;18.20;;;24.40;52.20;;;;;;5067226;28;20567;-68
2022/06/16 08:20:20;;;;;;;18.70;18.10;;;24.40;51.70;;;;;;5059922;28;20860;-69
2022/06/16 08:22:47;;;;;;;19.03;18.33;;;24.50;52.10;;;;;;5051639;28;20884;-71
2022/06/16 08:25:15;;;;;;;18.97;18.33;;;24.50;51.60;;;;;;5060475;28;20487;-67
2022/06/16 08:27:46;;;;;;;18.37;17.87;;;24.50;50.50;;;;;;5065797;28;20445;-66
2022/06/16 08:30:15;;;;;;;19.17;18.57;;;24.40;50.10;;;;;;5052196;28;20452;-67
2022/06/16 08:32:42;;;;;;;17.53;17.03;;;24.50;50.40;;;;;;5057450;28;20507;-67
2022/06/16 08:35:10;;;;;;;18.17;17.47;;;24.50;50.40;;;;;;5050845;28;20437;-67
2022/06/16 08:37:37;;;;;;;14.50;14.00;;;24.50;50.20;;;;;;5053432;28;20635;-68
2022/06/16 08:40:06;;;;;;;17.90;17.30;;;24.50;50.40;;;;;;5064731;28;20448;-67
2022/06/16 08:42:41;;;;;;;17.40;16.80;;;24.50;50.40;;;;;;5051410;28;21026;-67
2022/06/16 08:45:21;;;;;;;17.20;16.70;;;24.50;50.80;;;;;;5064250;28;20447;-67
2022/06/16 08:47:57;;;;;;;15.13;14.70;;;24.50;50.00;;;;;;5053300;28;20440;-67
2022/06/16 08:50:32;;;;;;;16.97;16.40;;;24.50;49.50;;;;;;5038068;28;20448;-67
2022/06/16 08:53:16;;;;;;;18.10;17.50;;;24.60;49.10;;;;;;5049855;28;20498;-67
2022/06/16 08:55:52;;;;;;;18.10;17.43;;;24.60;48.80;;;;;;5058262;28;20504;-69
2022/06/16 08:58:28;;;;;;;18.37;17.87;;;24.60;48.30;;;;;;5071351;28;20575;-69
2022/06/16 09:01:02;;;;;;;17.67;16.97;;;24.50;48.30;;;;;;5054237;28;20467;-68
2022/06/16 09:03:35;;;;;;;17.30;16.70;;;24.50;48.50;;;;;;5041219;28;20970;-69
2022/06/16 09:06:27;;;;;;;17.60;17.10;;;24.50;49.00;;;;;;5061814;28;20457;-68
2022/06/16 09:09:02;;;;;;;17.23;16.73;;;24.40;49.30;;;;;;5031939;28;20484;-68
2022/06/16 09:11:38;;;;;;;17.63;17.10;;;24.40;49.30;;;;;;5071000;28;20545;-68
2022/06/16 09:17:30;;;;;;;17.27;16.77;;;24.50;49.00;;;;;;5031430;28;20420;-67
2022/06/16 09:20:08;;;;;;;17.03;16.40;;;24.50;48.80;;;;;;5064101;28;20530;-68
2022/06/16 09:22:50;;;;;;;16.43;15.93;;;24.50;49.20;;;;;;5058121;28;20498;-66
2022/06/16 09:25:39;;;;;;;16.87;16.37;;;24.50;49.30;;;;;;5059179;28;20482;-64
2022/06/16 09:28:12;;;;;;;16.80;16.30;;;24.50;49.00;;;;;;5067978;28;20508;-62
2022/06/16 09:30:42;;;;;;;16.70;16.00;;;24.50;49.60;;;;;;5062599;28;20440;-63
2022/06/16 09:33:16;;;;;;;16.57;16.10;;;24.50;48.90;;;;;;5059123;28;20808;-64
2022/06/16 09:35:48;;;;;;;17.00;16.50;;;24.60;49.30;;;;;;5057943;28;21082;-65
2022/06/16 09:38:21;;;;;;;17.13;16.63;;;24.50;49.50;;;;;;5066973;28;20479;-66
2022/06/16 09:40:54;;;;;;;16.20;15.70;;;24.50;49.20;;;;;;5056417;28;20506;-66
2022/06/16 09:43:28;;;;;;;17.60;17.00;;;24.60;49.40;;;;;;5071036;28;20863;-67
2022/06/16 09:46:00;;;;;;;18.07;17.37;;;24.60;48.80;;;;;;5053738;28;20539;-63
2022/06/16 09:48:31;;;;;;;17.53;16.97;;;24.60;48.40;;;;;;5050942;28;20475;-64
2022/06/16 09:51:06;;;;;;;17.43;16.93;;;24.60;48.20;;;;;;5060760;28;20881;-65
2022/06/16 09:53:38;;;;;;;17.50;16.90;;;24.60;48.70;;;;;;5065821;28;20844;-64
2022/06/16 09:56:10;;;;;;;16.90;16.23;;;24.60;48.00;;;;;;5067774;28;20454;-57
2022/06/16 09:58:43;;;;;;;18.77;18.20;;;24.60;47.90;;;;;;5064794;28;20513;-65
2022/06/16 10:01:15;;;;;;;19.70;19.10;;;24.60;47.90;;;;;;5067901;28;20547;-64
2022/06/16 10:03:52;;;;;;;18.93;18.23;;;24.60;47.90;;;;;;5073060;28;20538;-65
2022/06/16 10:06:31;;;;;;;18.90;18.30;;;24.60;48.10;;;;;;5054257;28;20482;-65
2022/06/16 10:09:08;;;;;;;21.27;20.20;;;24.70;47.80;;;;;;5054299;28;20532;-62
2022/06/16 10:11:48;;;;;;;18.80;18.10;;;24.60;47.00;;;;;;5057290;28;20558;-64
2022/06/16 10:14:21;;;;;;;19.73;19.03;;;24.60;46.70;;;;;;5055377;28;20486;-61
2022/06/16 10:16:55;;;;;;;19.40;18.80;;;24.60;46.50;;;;;;5054184;28;20487;-65
2022/06/16 10:19:27;;;;;;;20.07;19.37;;;24.60;46.60;;;;;;5068656;28;20572;-67
2022/06/16 10:21:54;;;;;;;19.20;18.60;;;24.70;46.50;;;;;;5072204;28;20513;-64
2022/06/16 10:24:26;;;;;;;19.80;19.30;;;24.70;46.50;;;;;;5062866;28;20475;-67
2022/06/16 10:26:54;;;;;;;19.47;18.87;;;24.70;46.30;;;;;;5063085;28;20448;-67
2022/06/16 10:29:25;;;;;;;19.20;18.60;;;24.70;46.30;;;;;;5065961;28;20526;-67
2022/06/16 10:31:56;;;;;;;19.07;18.47;;;24.70;46.20;;;;;;5071799;28;20890;-67
2022/06/16 10:34:32;;;;;;;18.17;17.47;;;24.70;46.40;;;;;;5057358;28;20448;-67
2022/06/16 10:37:07;;;;;;;18.17;17.60;;;24.70;46.90;;;;;;5073850;28;20449;-66
2022/06/16 10:39:43;;;;;;;17.50;17.00;;;24.70;46.10;;;;;;5069129;28;20477;-66
2022/06/16 10:42:17;;;;;;;17.90;17.30;;;24.70;46.80;;;;;;5059958;28;20469;-63
2022/06/16 10:44:51;;;;;;;18.10;17.50;;;24.70;46.50;;;;;;5065573;28;20953;-59
2022/06/16 10:47:22;;;;;;;18.30;17.80;;;24.70;46.80;;;;;;5065736;28;20447;-58
2022/06/16 10:49:51;;;;;;;17.70;17.20;;;24.70;46.70;;;;;;5064615;28;20476;-58
2022/06/16 10:52:27;;;;;;;18.30;17.70;;;24.70;46.80;;;;;;5055832;28;20499;-68
2022/06/16 10:55:01;;;;;;;18.57;17.97;;;24.70;46.60;;;;;;5063676;28;20534;-68
2022/06/16 10:57:30;;;;;;;18.93;18.33;;;24.70;46.60;;;;;;5073430;28;20475;-68
2022/06/16 11:00:04;;;;;;;17.47;16.97;;;24.70;46.70;;;;;;5061825;28;20571;-68
2022/06/16 11:02:35;;;;;;;18.37;17.77;;;24.70;46.60;;;;;;5068406;28;20574;-67
2022/06/16 11:05:06;;;;;;;17.97;17.47;;;24.70;46.40;;;;;;5060669;28;20540;-67
2022/06/16 11:07:37;;;;;;;18.80;18.20;;;24.80;46.50;;;;;;5070362;28;20526;-62
2022/06/16 11:10:08;;;;;;;17.60;17.10;;;24.80;47.20;;;;;;5065407;28;20532;-63
2022/06/16 11:12:37;;;;;;;18.97;18.20;;;24.70;46.50;;;;;;5072447;28;20498;-63
2022/06/16 11:15:15;;;;;;;18.87;18.27;;;24.70;47.00;;;;;;5056850;28;20535;-63
2022/06/16 11:17:47;;;;;;;18.00;17.40;;;24.70;46.20;;;;;;5064477;28;20982;-63
2022/06/16 11:20:22;;;;;;;17.87;17.37;;;24.70;46.20;;;;;;5063177;28;20514;-63
2022/06/16 11:22:51;;;;;;;17.70;17.10;;;24.70;46.20;;;;;;5062793;28;20550;-63
2022/06/16 11:25:21;;;;;;;20.07;19.47;;;24.70;46.30;;;;;;5066551;28;20706;-63
2022/06/16 11:27:51;;;;;;;19.80;19.20;;;24.70;46.50;;;;;;5056628;28;20444;-66
2022/06/16 11:30:34;;;;;;;19.90;19.30;;;24.80;46.70;;;;;;5066700;28;20479;-67
2022/06/16 11:33:01;;;;;;;21.10;20.20;;;24.80;46.80;;;;;;5054019;28;20444;-67
2022/06/16 11:35:38;;;;;;;21.03;20.43;;;24.80;46.40;;;;;;5064632;28;20497;-67
2022/06/16 11:38:13;;;;;;;22.40;21.50;;;24.80;45.90;;;;;;5052592;28;20443;-67
2022/06/16 11:40:48;;;;;;;21.20;20.60;;;24.70;46.60;;;;;;5052187;28;20966;-67
2022/06/16 11:43:28;;;;;;;20.73;20.13;;;24.80;46.40;;;;;;5055261;28;20542;-67
2022/06/16 11:46:06;;;;;;;21.00;20.30;;;24.80;46.40;;;;;;5060444;28;20498;-67
2022/06/16 11:48:41;;;;;;;20.67;20.00;;;24.80;46.50;;;;;;5059138;28;20936;-67
2022/06/16 11:51:19;;;;;;;20.97;20.20;;;24.70;46.50;;;;;;5036721;28;20994;-68
2022/06/16 11:53:59;;;;;;;21.00;20.40;;;24.80;46.70;;;;;;5061490;28;20871;-65
2022/06/16 11:56:36;;;;;;;20.40;19.80;;;24.80;46.70;;;;;;5060930;28;20479;-65
2022/06/16 11:59:33;;;;;;;19.37;18.70;;;24.90;46.60;;;;;;5060459;28;20475;-66
2022/06/16 12:02:17;;;;;;;19.87;19.27;;;24.90;46.40;;;;;;5048868;28;20492;-65
2022/06/16 12:04:57;;;;;;;20.63;19.77;;;24.90;46.30;;;;;;5068140;28;20954;-67
2022/06/16 12:07:57;;;;;;;20.40;19.80;;;24.90;46.20;;;;;;5057557;28;20793;-66
2022/06/16 12:10:35;;;;;;;21.70;21.00;;;24.90;46.60;;;;;;5041719;28;20470;-66
2022/06/16 12:13:10;;;;;;;20.83;20.23;;;24.90;46.80;;;;;;5032114;28;20472;-65
2022/06/16 12:15:44;;;;;;;20.33;19.60;;;24.90;46.40;;;;;;5052355;28;20432;-66
2022/06/16 12:18:27;;;;;;;19.30;18.60;;;24.90;46.30;;;;;;5071774;28;20443;-67
2022/06/16 12:21:03;;;;;;;18.90;18.30;;;24.90;46.30;;;;;;5052450;28;20551;-67
2022/06/16 12:23:37;;;;;;;18.70;18.10;;;24.90;46.60;;;;;;5058040;28;20949;-67
2022/06/16 12:26:10;;;;;;;18.47;17.97;;;24.90;46.90;;;;;;5060428;28;20453;-69
2022/06/16 12:28:42;;;;;;;18.80;18.20;;;25.00;46.80;;;;;;5066856;28;20450;-64
2022/06/16 12:31:16;;;;;;;19.57;18.97;;;25.00;46.60;;;;;;5054728;28;20995;-65
2022/06/16 12:33:50;;;;;;;18.77;18.27;;;25.00;46.50;;;;;;5052710;28;20501;-67
2022/06/16 12:36:24;;;;;;;19.00;18.20;;;25.00;46.60;;;;;;5060833;28;20530;-67
2022/06/16 12:38:57;;;;;;;18.77;18.17;;;25.10;46.50;;;;;;5057104;28;20483;-66
2022/06/16 12:41:29;;;;;;;17.93;17.43;;;25.10;46.60;;;;;;5067557;28;21029;-66
2022/06/16 12:44:02;;;;;;;18.50;17.90;;;25.10;46.80;;;;;;5054154;28;20538;-65
2022/06/16 12:46:36;;;;;;;19.73;19.03;;;25.10;47.70;;;;;;5065955;28;20561;-66
2022/06/16 12:49:09;;;;;;;18.30;17.80;;;25.20;46.80;;;;;;5067127;28;20466;-67
2022/06/16 12:51:48;;;;;;;18.80;18.20;;;25.20;46.20;;;;;;5039996;28;20502;-66
2022/06/16 12:54:21;;;;;;;18.77;18.27;;;25.20;46.20;;;;;;5069428;28;20451;-65
2022/06/16 12:56:52;;;;;;;19.13;18.53;;;25.20;46.00;;;;;;5056256;28;20450;-65
2022/06/16 12:59:24;;;;;;;18.77;18.27;;;25.20;46.10;;;;;;5065627;28;20507;-66
2022/06/16 13:01:56;;;;;;;18.70;18.10;;;25.20;46.50;;;;;;5067228;28;20487;-66
2022/06/16 13:04:25;;;;;;;18.30;17.80;;;25.20;46.60;;;;;;5064507;28;20445;-66
2022/06/16 13:06:54;;;;;;;19.53;18.83;;;25.20;46.00;;;;;;5051414;28;20527;-66